Time;durP1;ratioP1;P1;durP2;ratioP2;P2;SDS_P1;SDS_P2;PMS_P1;PMS_P2;Temp;Humidity;BMP_temperature;BMP_pressure;BME280_temperature;BME280_humidity;BME280_pressure;Samples;Min_cycle;Max_cycle;Signal;HPM_P1;HPM_P2
2022/11/14 00:02:16;;;;;;;13.13;6.18;;;;;;;;;;5056367;28;20044;-77
2022/11/14 00:04:46;;;;;;;9.48;4.50;;;;;;;;;;5039312;28;21125;-77
2022/11/14 00:07:12;;;;;;;10.38;5.78;;;;;;;;;;5057626;28;20041;-77
2022/11/14 00:09:41;;;;;;;8.38;5.20;;;;;;;;;;5037554;28;20508;-77
2022/11/14 00:12:08;;;;;;;9.70;5.45;;;;;;;;;;5056506;28;20061;-77
2022/11/14 00:14:34;;;;;;;9.88;5.32;;;;;;;;;;5039907;28;20049;-77
2022/11/14 00:17:00;;;;;;;8.23;5.20;;;;;;;;;;5037917;28;20230;-77
2022/11/14 00:19:26;;;;;;;9.23;5.75;;;;;;;;;;5038106;28;20041;-77
2022/11/14 00:21:52;;;;;;;8.90;5.40;;;;;;;;;;5033527;28;20060;-78
2022/11/14 00:24:18;;;;;;;9.48;5.45;;;;;;;;;;5056047;28;21200;-77
2022/11/14 00:26:44;;;;;;;10.45;5.03;;;;;;;;;;5038495;28;20313;-77
2022/11/14 00:29:11;;;;;;;16.08;5.40;;;;;;;;;;5057463;28;20470;-77
2022/11/14 00:31:37;;;;;;;18.25;6.03;;;;;;;;;;5054882;28;20033;-77
2022/11/14 00:34:04;;;;;;;24.75;6.80;;;;;;;;;;5054435;28;20048;-77
2022/11/14 00:36:30;;;;;;;15.15;5.43;;;;;;;;;;5040548;28;20132;-77
2022/11/14 00:38:56;;;;;;;12.77;5.32;;;;;;;;;;5061989;28;20116;-78
2022/11/14 00:41:22;;;;;;;13.05;6.18;;;;;;;;;;5061533;28;20521;-78
2022/11/14 00:43:48;;;;;;;21.00;6.22;;;;;;;;;;5059782;28;20052;-77
2022/11/14 00:46:14;;;;;;;14.63;5.60;;;;;;;;;;5062106;28;20573;-77
2022/11/14 00:48:40;;;;;;;17.35;6.32;;;;;;;;;;5061464;28;20041;-78
2022/11/14 00:51:06;;;;;;;20.20;7.82;;;;;;;;;;5061278;28;20061;-77
2022/11/14 00:53:32;;;;;;;19.90;6.45;;;;;;;;;;5059938;28;20140;-77
2022/11/14 00:55:58;;;;;;;16.08;6.18;;;;;;;;;;5061186;28;20037;-77
2022/11/14 00:58:24;;;;;;;15.52;6.25;;;;;;;;;;5058286;28;20073;-77
2022/11/14 01:00:51;;;;;;;22.15;6.93;;;;;;;;;;5058676;28;20044;-78
2022/11/14 01:03:17;;;;;;;18.27;6.55;;;;;;;;;;5036785;28;20140;-77
2022/11/14 01:05:48;;;;;;;12.80;6.45;;;;;;;;;;5038132;28;20057;-77
2022/11/14 01:08:14;;;;;;;17.33;6.60;;;;;;;;;;5028574;28;20041;-76
2022/11/14 01:10:41;;;;;;;16.45;6.47;;;;;;;;;;5038075;28;20045;-77
2022/11/14 01:13:07;;;;;;;10.50;5.93;;;;;;;;;;5036748;28;20056;-77
2022/11/14 01:15:33;;;;;;;12.18;6.05;;;;;;;;;;5031054;28;20995;-77
2022/11/14 01:18:00;;;;;;;10.13;5.22;;;;;;;;;;5036627;28;21242;-77
2022/11/14 01:20:26;;;;;;;9.10;5.28;;;;;;;;;;5038352;28;20124;-77
2022/11/14 01:22:52;;;;;;;8.90;4.30;;;;;;;;;;5029651;28;20037;-78
2022/11/14 01:25:18;;;;;;;7.40;3.60;;;;;;;;;;5039624;28;20033;-77
2022/11/14 01:27:44;;;;;;;7.95;4.28;;;;;;;;;;5036491;28;20049;-79
2022/11/14 01:30:10;;;;;;;15.15;5.25;;;;;;;;;;5030489;28;20175;-78
2022/11/14 01:32:36;;;;;;;10.50;4.50;;;;;;;;;;5037821;28;20445;-78
2022/11/14 01:35:02;;;;;;;9.30;4.20;;;;;;;;;;5027422;28;20053;-78
2022/11/14 01:37:29;;;;;;;10.45;4.88;;;;;;;;;;5034663;28;20037;-78
2022/11/14 01:39:55;;;;;;;10.02;4.60;;;;;;;;;;5036758;28;20041;-78
2022/11/14 01:42:21;;;;;;;11.07;4.70;;;;;;;;;;5034060;28;20128;-78
2022/11/14 01:44:48;;;;;;;8.38;5.00;;;;;;;;;;5026485;28;20046;-78
2022/11/14 01:47:17;;;;;;;10.05;5.38;;;;;;;;;;5038365;28;20578;-78
2022/11/14 01:49:45;;;;;;;8.40;3.88;;;;;;;;;;5028712;28;20629;-78
2022/11/14 01:52:18;;;;;;;12.90;4.95;;;;;;;;;;5030064;28;20439;-78
2022/11/14 01:54:46;;;;;;;13.65;5.78;;;;;;;;;;5036235;28;20056;-78
2022/11/14 01:57:14;;;;;;;18.08;4.97;;;;;;;;;;5037522;28;20073;-78
2022/11/14 01:59:42;;;;;;;27.65;5.45;;;;;;;;;;5034496;28;20041;-79
2022/11/14 02:02:11;;;;;;;11.15;5.53;;;;;;;;;;5028371;28;20045;-78
2022/11/14 02:04:39;;;;;;;12.57;5.35;;;;;;;;;;5029738;28;20056;-78
2022/11/14 02:07:06;;;;;;;11.90;5.05;;;;;;;;;;5029933;28;20065;-78
2022/11/14 02:09:35;;;;;;;8.98;4.63;;;;;;;;;;5035885;28;20052;-79
2022/11/14 02:12:02;;;;;;;14.65;5.53;;;;;;;;;;5035196;28;20122;-78
2022/11/14 02:14:28;;;;;;;16.38;6.00;;;;;;;;;;5028071;28;20049;-78
2022/11/14 02:16:54;;;;;;;18.20;6.63;;;;;;;;;;5036467;28;20873;-78
2022/11/14 02:19:21;;;;;;;11.38;5.55;;;;;;;;;;5036546;28;20045;-79
2022/11/14 02:21:47;;;;;;;18.50;6.32;;;;;;;;;;5035462;28;20080;-79
2022/11/14 02:24:13;;;;;;;13.70;5.25;;;;;;;;;;5036393;28;20056;-79
2022/11/14 02:26:40;;;;;;;26.05;6.38;;;;;;;;;;5027855;28;20041;-79
2022/11/14 02:29:07;;;;;;;20.10;6.65;;;;;;;;;;5025662;28;20080;-77
2022/11/14 02:31:33;;;;;;;16.60;5.57;;;;;;;;;;5035098;28;20553;-77
2022/11/14 02:33:59;;;;;;;21.40;7.32;;;;;;;;;;5033695;28;20073;-77
2022/11/14 02:36:26;;;;;;;16.52;6.75;;;;;;;;;;5037205;28;20046;-77
2022/11/14 02:38:52;;;;;;;25.95;6.75;;;;;;;;;;5029332;28;20422;-77
2022/11/14 02:41:18;;;;;;;14.25;5.82;;;;;;;;;;5036789;28;21215;-77
2022/11/14 02:43:44;;;;;;;17.65;6.53;;;;;;;;;;5034484;28;20048;-77
2022/11/14 02:46:10;;;;;;;29.15;6.47;;;;;;;;;;5036445;28;20057;-77
2022/11/14 02:48:36;;;;;;;22.33;6.10;;;;;;;;;;5035387;28;20620;-78
2022/11/14 02:51:02;;;;;;;14.20;4.88;;;;;;;;;;5035059;28;20045;-77
2022/11/14 02:53:28;;;;;;;13.90;6.28;;;;;;;;;;5026308;28;20041;-78
2022/11/14 02:55:55;;;;;;;23.08;6.32;;;;;;;;;;5034131;28;20044;-78
2022/11/14 02:58:21;;;;;;;11.15;6.10;;;;;;;;;;5027218;28;20069;-77
2022/11/14 03:00:47;;;;;;;15.73;7.10;;;;;;;;;;5032248;28;20877;-77
2022/11/14 03:03:13;;;;;;;23.05;6.85;;;;;;;;;;5033863;28;20535;-77
2022/11/14 03:05:39;;;;;;;18.02;5.53;;;;;;;;;;5027420;28;20571;-77
2022/11/14 03:08:05;;;;;;;16.40;7.18;;;;;;;;;;5035452;28;20100;-77
2022/11/14 03:10:31;;;;;;;11.07;5.53;;;;;;;;;;5036291;28;20042;-77
2022/11/14 03:12:58;;;;;;;23.38;5.63;;;;;;;;;;5036624;28;20494;-77
2022/11/14 03:15:24;;;;;;;11.38;4.78;;;;;;;;;;5036039;28;20046;-77
2022/11/14 03:17:50;;;;;;;16.08;5.38;;;;;;;;;;5026925;28;20092;-77
2022/11/14 03:20:17;;;;;;;11.63;5.30;;;;;;;;;;5035422;28;20042;-78
2022/11/14 03:22:43;;;;;;;14.75;5.60;;;;;;;;;;5027391;28;20083;-77
2022/11/14 03:25:09;;;;;;;13.18;5.90;;;;;;;;;;5037594;28;20550;-77
2022/11/14 03:27:35;;;;;;;16.70;6.47;;;;;;;;;;5036121;28;20041;-78
2022/11/14 03:30:01;;;;;;;16.73;6.65;;;;;;;;;;5034778;28;20119;-77
2022/11/14 03:32:27;;;;;;;14.93;5.50;;;;;;;;;;5035083;28;20042;-77
2022/11/14 03:34:53;;;;;;;11.70;6.20;;;;;;;;;;5033100;28;20037;-77
2022/11/14 03:37:19;;;;;;;17.67;6.55;;;;;;;;;;5027415;28;20059;-78
2022/11/14 03:39:45;;;;;;;13.13;6.03;;;;;;;;;;5033237;28;20132;-77
2022/11/14 03:42:12;;;;;;;21.58;6.45;;;;;;;;;;5034716;28;20042;-77
2022/11/14 03:44:38;;;;;;;12.45;5.93;;;;;;;;;;5034866;28;20046;-77
2022/11/14 03:47:04;;;;;;;11.70;4.05;;;;;;;;;;5027643;28;20045;-77
2022/11/14 03:49:30;;;;;;;12.65;5.20;;;;;;;;;;5028038;28;20324;-77
2022/11/14 03:51:56;;;;;;;17.60;6.13;;;;;;;;;;5035180;28;20041;-77
2022/11/14 03:54:22;;;;;;;11.20;6.00;;;;;;;;;;5035667;28;20045;-77
2022/11/14 03:56:48;;;;;;;17.30;5.88;;;;;;;;;;5034233;28;20045;-77
2022/11/14 03:59:14;;;;;;;19.15;5.65;;;;;;;;;;5034498;28;21157;-77
2022/11/14 04:01:40;;;;;;;21.70;5.88;;;;;;;;;;5034782;28;20609;-77
2022/11/14 04:04:06;;;;;;;12.68;5.15;;;;;;;;;;5045634;28;20080;-77
2022/11/14 04:06:32;;;;;;;46.15;7.47;;;;;;;;;;5031976;28;20095;-77
2022/11/14 04:09:00;;;;;;;14.52;5.40;;;;;;;;;;5035999;28;20467;-77
2022/11/14 04:11:26;;;;;;;10.02;5.03;;;;;;;;;;5036035;28;20120;-77
2022/11/14 04:13:52;;;;;;;8.80;5.38;;;;;;;;;;5054907;28;20048;-77
2022/11/14 04:16:18;;;;;;;19.50;5.18;;;;;;;;;;5029378;28;20041;-77
2022/11/14 04:18:44;;;;;;;18.10;6.10;;;;;;;;;;5054280;28;20041;-77
2022/11/14 04:21:10;;;;;;;14.55;5.18;;;;;;;;;;5035257;28;20115;-77
2022/11/14 04:23:36;;;;;;;10.05;5.00;;;;;;;;;;5054923;28;20481;-78
2022/11/14 04:26:02;;;;;;;17.17;5.85;;;;;;;;;;5028781;28;20037;-77
2022/11/14 04:28:28;;;;;;;13.95;5.00;;;;;;;;;;5045075;28;20606;-77
2022/11/14 04:30:54;;;;;;;12.48;5.43;;;;;;;;;;5052021;28;20052;-77
2022/11/14 04:33:20;;;;;;;14.48;5.65;;;;;;;;;;5053119;28;20041;-77
2022/11/14 04:35:47;;;;;;;14.98;5.82;;;;;;;;;;5053452;28;20056;-77
2022/11/14 04:38:13;;;;;;;17.67;6.25;;;;;;;;;;5056008;28;20056;-77
2022/11/14 04:40:39;;;;;;;16.30;5.22;;;;;;;;;;5051704;28;20884;-77
2022/11/14 04:43:05;;;;;;;28.33;5.72;;;;;;;;;;5053321;28;20646;-77
2022/11/14 04:45:32;;;;;;;13.23;5.45;;;;;;;;;;5053509;28;20045;-77
2022/11/14 04:47:58;;;;;;;24.80;6.43;;;;;;;;;;5030823;28;20048;-77
2022/11/14 04:50:24;;;;;;;12.82;5.03;;;;;;;;;;5051514;28;20560;-77
2022/11/14 04:52:53;;;;;;;6.05;3.15;;;;;;;;;;5029513;28;20561;-77
2022/11/14 04:55:19;;;;;;;19.23;5.43;;;;;;;;;;5032877;28;21031;-77
2022/11/14 04:57:45;;;;;;;14.02;5.28;;;;;;;;;;5054483;28;20045;-77
2022/11/14 05:00:12;;;;;;;17.70;5.65;;;;;;;;;;5051508;28;20045;-77
2022/11/14 05:02:38;;;;;;;14.85;4.90;;;;;;;;;;5054520;28;20882;-77
2022/11/14 05:05:04;;;;;;;12.25;4.45;;;;;;;;;;5035124;28;20040;-77
2022/11/14 05:07:30;;;;;;;24.08;5.50;;;;;;;;;;5054358;28;20708;-77
2022/11/14 05:09:56;;;;;;;14.82;5.30;;;;;;;;;;5052679;28;20059;-77
2022/11/14 05:12:22;;;;;;;13.02;5.30;;;;;;;;;;5055481;28;20071;-77
2022/11/14 05:14:48;;;;;;;8.88;4.35;;;;;;;;;;5054302;28;20091;-77
2022/11/14 05:17:14;;;;;;;9.43;4.97;;;;;;;;;;5054575;28;20599;-77
2022/11/14 05:19:40;;;;;;;9.20;5.00;;;;;;;;;;5055139;28;20045;-77
2022/11/14 05:22:06;;;;;;;7.00;3.83;;;;;;;;;;5053675;28;20037;-77
2022/11/14 05:24:33;;;;;;;11.20;4.55;;;;;;;;;;5048827;28;20320;-77
2022/11/14 05:26:59;;;;;;;8.05;5.05;;;;;;;;;;5058146;28;20535;-77
2022/11/14 05:29:25;;;;;;;8.50;4.60;;;;;;;;;;5058900;28;20553;-77
2022/11/14 05:31:51;;;;;;;10.02;4.90;;;;;;;;;;5055692;28;20107;-77
2022/11/14 05:34:17;;;;;;;8.10;5.28;;;;;;;;;;5055213;28;20049;-77
2022/11/14 05:36:43;;;;;;;9.05;4.88;;;;;;;;;;5057864;28;20882;-77
2022/11/14 05:39:09;;;;;;;9.85;4.75;;;;;;;;;;5055688;28;21651;-77
2022/11/14 05:41:35;;;;;;;10.70;5.15;;;;;;;;;;5056611;28;20405;-77
2022/11/14 05:44:03;;;;;;;9.52;5.45;;;;;;;;;;5057510;28;20037;-77
2022/11/14 05:46:29;;;;;;;13.48;5.85;;;;;;;;;;5055138;28;20048;-78
2022/11/14 05:48:55;;;;;;;14.98;5.45;;;;;;;;;;5055344;28;20041;-77
2022/11/14 05:51:21;;;;;;;12.07;4.85;;;;;;;;;;5056507;28;20041;-77
2022/11/14 05:53:48;;;;;;;7.85;4.75;;;;;;;;;;5054494;28;20037;-77
2022/11/14 05:56:14;;;;;;;8.82;5.35;;;;;;;;;;5054125;28;20053;-77
2022/11/14 05:58:40;;;;;;;9.20;5.80;;;;;;;;;;5052546;28;20037;-77
2022/11/14 06:01:06;;;;;;;9.02;5.05;;;;;;;;;;5054432;28;20061;-76
2022/11/14 06:03:36;;;;;;;7.50;4.78;;;;;;;;;;5037363;28;20076;-77
2022/11/14 06:06:04;;;;;;;12.15;4.65;;;;;;;;;;5053166;28;20045;-76
2022/11/14 06:08:31;;;;;;;14.60;4.82;;;;;;;;;;5037049;28;20045;-77
2022/11/14 06:11:00;;;;;;;8.43;4.85;;;;;;;;;;5029499;28;20059;-77
2022/11/14 06:13:26;;;;;;;8.20;4.35;;;;;;;;;;5055128;28;20048;-78
2022/11/14 06:15:53;;;;;;;8.88;4.32;;;;;;;;;;5031291;28;20049;-77
2022/11/14 06:18:19;;;;;;;7.45;4.93;;;;;;;;;;5028943;28;20041;-78
2022/11/14 06:20:45;;;;;;;8.15;4.60;;;;;;;;;;5029973;28;20090;-77
2022/11/14 06:23:11;;;;;;;10.23;5.20;;;;;;;;;;5056749;28;20090;-77
2022/11/14 06:25:37;;;;;;;9.50;5.05;;;;;;;;;;5054551;28;20615;-78
2022/11/14 06:28:03;;;;;;;7.75;4.68;;;;;;;;;;5031894;28;20051;-78
2022/11/14 06:30:29;;;;;;;9.75;4.80;;;;;;;;;;5036835;28;20624;-77
2022/11/14 06:32:58;;;;;;;10.25;4.95;;;;;;;;;;5054320;28;20041;-77
2022/11/14 06:35:25;;;;;;;17.98;5.80;;;;;;;;;;5035333;28;20056;-77
2022/11/14 06:37:51;;;;;;;12.57;4.43;;;;;;;;;;5037156;28;20056;-77
2022/11/14 06:40:17;;;;;;;14.35;5.22;;;;;;;;;;5057528;28;20065;-78
2022/11/14 06:42:43;;;;;;;17.23;5.10;;;;;;;;;;5057696;28;20156;-77
2022/11/14 06:45:09;;;;;;;15.10;4.72;;;;;;;;;;5057842;28;20052;-77
2022/11/14 06:47:35;;;;;;;7.57;4.60;;;;;;;;;;5057709;28;20041;-77
2022/11/14 06:50:02;;;;;;;28.88;7.25;;;;;;;;;;5056599;28;20116;-78
2022/11/14 06:52:28;;;;;;;15.05;5.28;;;;;;;;;;5056135;28;20076;-78
2022/11/14 06:54:54;;;;;;;8.13;4.78;;;;;;;;;;5029108;28;20072;-77
2022/11/14 06:57:20;;;;;;;5.47;4.07;;;;;;;;;;5054449;28;20081;-78
2022/11/14 06:59:46;;;;;;;12.60;5.40;;;;;;;;;;5057244;28;20037;-79
2022/11/14 07:02:13;;;;;;;10.35;5.45;;;;;;;;;;5057709;28;20044;-78
2022/11/14 07:04:39;;;;;;;35.10;6.20;;;;;;;;;;5032638;28;20053;-79
2022/11/14 07:07:05;;;;;;;20.45;7.63;;;;;;;;;;5054679;28;20048;-78
2022/11/14 07:09:31;;;;;;;24.77;4.90;;;;;;;;;;5054322;28;20041;-79
2022/11/14 07:11:57;;;;;;;13.48;4.70;;;;;;;;;;5054973;28;20529;-78
2022/11/14 07:14:23;;;;;;;9.75;4.63;;;;;;;;;;5054910;28;20725;-78
2022/11/14 07:16:50;;;;;;;21.95;5.95;;;;;;;;;;5036526;28;20037;-78
2022/11/14 07:19:16;;;;;;;16.55;5.78;;;;;;;;;;5054928;28;20598;-78
2022/11/14 07:21:42;;;;;;;17.65;5.65;;;;;;;;;;5052369;28;20052;-78
2022/11/14 07:24:08;;;;;;;12.15;4.85;;;;;;;;;;5036314;28;20044;-78
2022/11/14 07:26:34;;;;;;;15.65;5.90;;;;;;;;;;5029651;28;20084;-78
2022/11/14 07:29:00;;;;;;;12.00;6.05;;;;;;;;;;5053927;28;20041;-78
2022/11/14 07:31:26;;;;;;;13.35;5.32;;;;;;;;;;5054979;28;20041;-78
2022/11/14 07:33:52;;;;;;;9.60;5.68;;;;;;;;;;5054132;28;20454;-78
2022/11/14 07:36:18;;;;;;;16.92;5.50;;;;;;;;;;5054097;28;20069;-78
2022/11/14 07:38:44;;;;;;;10.55;4.90;;;;;;;;;;5052514;28;20047;-78
2022/11/14 07:41:11;;;;;;;14.60;5.97;;;;;;;;;;5052898;28;20036;-78
2022/11/14 07:43:38;;;;;;;12.88;5.03;;;;;;;;;;5052577;28;20049;-77
2022/11/14 07:46:08;;;;;;;7.10;4.90;;;;;;;;;;5048588;28;20048;-77
2022/11/14 07:48:34;;;;;;;7.63;4.53;;;;;;;;;;5030229;28;20059;-78
2022/11/14 07:51:01;;;;;;;6.43;4.93;;;;;;;;;;5055307;28;20044;-78
2022/11/14 07:53:28;;;;;;;9.80;5.32;;;;;;;;;;5029553;28;20059;-78
2022/11/14 07:55:54;;;;;;;8.10;4.75;;;;;;;;;;5053235;28;20509;-78
2022/11/14 07:58:20;;;;;;;8.32;4.22;;;;;;;;;;5055348;28;20067;-79
2022/11/14 08:00:46;;;;;;;8.93;4.82;;;;;;;;;;5031394;28;20033;-79
2022/11/14 08:03:12;;;;;;;8.75;4.70;;;;;;;;;;5027414;28;20050;-79
2022/11/14 08:05:39;;;;;;;6.20;5.05;;;;;;;;;;5036768;28;20044;-79
2022/11/14 08:08:05;;;;;;;13.55;3.90;;;;;;;;;;5037060;28;20041;-76
2022/11/14 08:10:31;;;;;;;8.65;4.25;;;;;;;;;;5036764;28;20049;-78
2022/11/14 08:13:01;;;;;;;5.93;3.85;;;;;;;;;;5036831;28;20133;-78
2022/11/14 08:15:28;;;;;;;6.68;3.65;;;;;;;;;;5028918;28;20076;-78
2022/11/14 08:18:01;;;;;;;7.63;4.15;;;;;;;;;;5035292;28;20048;-78
2022/11/14 08:20:27;;;;;;;12.25;4.45;;;;;;;;;;5028092;28;20045;-78
2022/11/14 08:22:54;;;;;;;6.72;3.53;;;;;;;;;;5036760;28;20088;-78
2022/11/14 08:25:20;;;;;;;5.80;3.70;;;;;;;;;;5036141;28;20041;-78
2022/11/14 08:27:46;;;;;;;7.10;4.32;;;;;;;;;;5035696;28;20041;-78
2022/11/14 08:30:12;;;;;;;7.47;4.07;;;;;;;;;;5036928;28;20052;-78
2022/11/14 08:32:38;;;;;;;7.70;4.32;;;;;;;;;;5036773;28;20041;-78
2022/11/14 08:35:04;;;;;;;5.25;3.80;;;;;;;;;;5036971;28;20041;-77
2022/11/14 08:37:31;;;;;;;7.95;4.50;;;;;;;;;;5036472;28;20080;-78
2022/11/14 08:39:57;;;;;;;9.48;4.72;;;;;;;;;;5036131;28;20112;-78
2022/11/14 08:42:23;;;;;;;7.90;4.45;;;;;;;;;;5027181;28;20060;-78
2022/11/14 08:44:49;;;;;;;9.45;4.85;;;;;;;;;;5036052;28;20042;-78
2022/11/14 08:47:15;;;;;;;5.53;3.83;;;;;;;;;;5037044;28;20595;-78
2022/11/14 08:49:41;;;;;;;8.73;4.57;;;;;;;;;;5036194;28;20133;-77
2022/11/14 08:52:07;;;;;;;6.32;4.05;;;;;;;;;;5034941;28;20054;-78
2022/11/14 08:54:33;;;;;;;7.70;4.80;;;;;;;;;;5027075;28;20044;-79
2022/11/14 08:56:59;;;;;;;7.07;5.32;;;;;;;;;;5035059;28;20034;-78
2022/11/14 08:59:25;;;;;;;5.53;3.25;;;;;;;;;;5039309;28;20037;-78
2022/11/14 09:01:51;;;;;;;6.38;4.10;;;;;;;;;;5030093;28;20053;-77
2022/11/14 09:04:17;;;;;;;7.40;3.83;;;;;;;;;;5051403;28;20103;-78
2022/11/14 09:06:45;;;;;;;6.53;5.18;;;;;;;;;;5060356;28;20041;-78
2022/11/14 09:09:11;;;;;;;5.72;4.15;;;;;;;;;;5040961;28;20494;-78
2022/11/14 09:11:38;;;;;;;5.32;3.75;;;;;;;;;;5058874;28;20060;-79
2022/11/14 09:14:05;;;;;;;8.27;4.53;;;;;;;;;;5041314;28;20047;-78
2022/11/14 09:16:32;;;;;;;5.15;3.63;;;;;;;;;;5035229;28;20037;-78
2022/11/14 09:18:58;;;;;;;8.30;3.97;;;;;;;;;;5059190;28;20040;-78
2022/11/14 09:21:25;;;;;;;6.80;4.25;;;;;;;;;;5041734;28;20049;-78
2022/11/14 09:23:51;;;;;;;9.73;4.80;;;;;;;;;;5040301;28;20094;-78
2022/11/14 09:26:17;;;;;;;9.05;6.00;;;;;;;;;;5059912;28;20068;-78
2022/11/14 09:28:44;;;;;;;8.93;5.30;;;;;;;;;;5059162;28;20161;-78
2022/11/14 09:31:11;;;;;;;6.78;4.70;;;;;;;;;;5059913;28;20044;-79
2022/11/14 09:33:37;;;;;;;7.82;4.68;;;;;;;;;;5059315;28;21323;-78
2022/11/14 09:36:04;;;;;;;7.20;4.72;;;;;;;;;;5059594;28;20048;-78
2022/11/14 09:38:31;;;;;;;8.48;5.07;;;;;;;;;;5056789;28;20048;-78
2022/11/14 09:41:01;;;;;;;8.85;5.72;;;;;;;;;;5040308;28;20545;-78
2022/11/14 09:43:27;;;;;;;8.13;5.03;;;;;;;;;;5059141;28;20037;-80
2022/11/14 09:45:53;;;;;;;8.48;5.55;;;;;;;;;;5034447;28;20037;-77
2022/11/14 09:48:24;;;;;;;7.88;5.50;;;;;;;;;;5041108;28;20131;-78
2022/11/14 09:50:58;;;;;;;10.30;6.13;;;;;;;;;;5059066;28;20038;-78
2022/11/14 09:53:53;;;;;;;10.43;7.15;;;;;;;;;;5057429;28;20041;-78
2022/11/14 09:56:23;;;;;;;8.35;5.80;;;;;;;;;;5040450;28;20534;-78
2022/11/14 09:58:49;;;;;;;7.50;5.50;;;;;;;;;;5057183;28;20037;-78
2022/11/14 10:01:21;;;;;;;10.25;6.15;;;;;;;;;;5059971;28;20103;-78
2022/11/14 10:04:02;;;;;;;9.52;6.32;;;;;;;;;;5058973;28;20053;-78
2022/11/14 10:06:43;;;;;;;19.83;6.40;;;;;;;;;;5041577;28;20055;-78
2022/11/14 10:09:09;;;;;;;12.83;5.80;;;;;;;;;;5058275;28;20052;-77
2022/11/14 10:11:40;;;;;;;11.10;6.82;;;;;;;;;;5059797;28;20052;-78
2022/11/14 10:14:06;;;;;;;11.05;6.45;;;;;;;;;;5059041;28;20511;-78
2022/11/14 10:16:44;;;;;;;9.95;7.45;;;;;;;;;;5059522;28;20044;-79
2022/11/14 10:19:16;;;;;;;10.07;6.07;;;;;;;;;;5059446;28;20040;-79
2022/11/14 10:21:42;;;;;;;;;;;;;;;;;;5041426;28;20126;-79
2022/11/14 10:24:27;;;;;;;8.38;5.57;;;;;;;;;;5058878;28;20471;-79
2022/11/14 10:26:59;;;;;;;9.38;5.20;;;;;;;;;;5034533;28;20091;-78
2022/11/14 10:29:41;;;;;;;6.65;5.20;;;;;;;;;;5041739;28;20045;-79
2022/11/14 10:32:19;;;;;;;8.90;6.22;;;;;;;;;;5036165;28;20049;-79
2022/11/14 10:34:49;;;;;;;7.60;5.05;;;;;;;;;;5041187;28;20183;-79
2022/11/14 10:37:32;;;;;;;6.72;5.13;;;;;;;;;;5035986;28;20033;-79
2022/11/14 10:39:58;;;;;;;;;;;;;;;;;;5061351;28;20040;-79
2022/11/14 10:42:50;;;;;;;12.30;6.35;;;;;;;;;;5060741;28;19929;-78
2022/11/14 10:45:19;;;;;;;8.10;4.50;;;;;;;;;;5055397;28;20064;-78
2022/11/14 10:47:51;;;;;;;8.68;5.00;;;;;;;;;;5059817;28;20041;-78
2022/11/14 10:50:17;;;;;;;;;;;;;;;;;;5059066;28;20047;-78
2022/11/14 10:52:44;;;;;;;12.75;5.95;;;;;;;;;;5059368;28;19925;-79
2022/11/14 10:55:15;;;;;;;7.80;4.70;;;;;;;;;;5039404;28;20037;-79
2022/11/14 10:57:41;;;;;;;8.18;5.28;;;;;;;;;;5058625;28;20099;-79
2022/11/14 11:00:34;;;;;;;7.70;4.30;;;;;;;;;;5035708;28;20037;-78
2022/11/14 11:03:00;;;;;;;;;;;;;;;;;;5051211;28;20095;-79
2022/11/14 11:05:29;;;;;;;6.82;4.10;;;;;;;;;;5063512;28;20486;-79
2022/11/14 11:13:49;;;;;;;5.72;4.20;;;;;;;;;;5065393;28;20041;-78
2022/11/14 11:16:19;;;;;;;6.93;4.72;;;;;;;;;;5050435;28;20045;-78
2022/11/14 11:18:45;;;;;;;8.00;4.45;;;;;;;;;;5061443;28;20046;-78
2022/11/14 11:21:13;;;;;;;8.80;4.97;;;;;;;;;;5059368;28;20045;-79
2022/11/14 11:23:48;;;;;;;6.35;4.53;;;;;;;;;;5059803;28;20114;-78
2022/11/14 11:26:24;;;;;;;7.75;5.03;;;;;;;;;;5042202;28;20044;-78
2022/11/14 11:29:02;;;;;;;8.88;5.13;;;;;;;;;;5060840;28;20113;-78
2022/11/14 11:31:28;;;;;;;7.78;5.18;;;;;;;;;;5041522;28;20044;-78
2022/11/14 11:33:54;;;;;;;7.00;4.78;;;;;;;;;;5060910;28;20082;-79
2022/11/14 11:36:22;;;;;;;7.53;5.43;;;;;;;;;;5062587;28;20113;-79
2022/11/14 11:38:48;;;;;;;10.27;4.85;;;;;;;;;;5036032;28;20045;-79
2022/11/14 11:41:17;;;;;;;7.57;4.55;;;;;;;;;;5060730;28;20041;-78
2022/11/14 11:43:43;;;;;;;6.70;4.63;;;;;;;;;;5059843;28;20593;-78
2022/11/14 11:46:19;;;;;;;10.18;4.97;;;;;;;;;;5057848;28;20529;-78
2022/11/14 11:48:47;;;;;;;10.10;5.53;;;;;;;;;;5057222;28;20103;-79
2022/11/14 11:51:16;;;;;;;7.22;4.95;;;;;;;;;;5058010;28;20047;-78
2022/11/14 11:53:44;;;;;;;6.97;4.78;;;;;;;;;;5038150;28;20140;-78
2022/11/14 11:56:15;;;;;;;8.70;4.82;;;;;;;;;;5057871;28;20041;-78
2022/11/14 11:58:47;;;;;;;8.68;5.03;;;;;;;;;;5039151;28;20048;-79
2022/11/14 12:01:13;;;;;;;7.40;4.63;;;;;;;;;;5032298;28;20044;-78
2022/11/14 12:03:42;;;;;;;7.15;4.15;;;;;;;;;;5032332;28;20118;-78
2022/11/14 12:06:14;;;;;;;9.93;4.90;;;;;;;;;;5057053;28;20033;-79
2022/11/14 12:08:40;;;;;;;;;;;;;;;;;;5057550;28;20040;-78
2022/11/14 12:11:08;;;;;;;7.47;4.80;;;;;;;;;;5056779;28;20030;-78
2022/11/14 12:13:57;;;;;;;8.40;5.47;;;;;;;;;;5056770;28;20056;-78
2022/11/14 12:16:42;;;;;;;7.30;4.55;;;;;;;;;;5054932;28;20048;-78
2022/11/14 12:19:15;;;;;;;8.15;5.45;;;;;;;;;;5038975;28;20033;-79
2022/11/14 12:21:41;;;;;;;16.27;8.02;;;;;;;;;;5055351;28;20041;-79
2022/11/14 12:24:15;;;;;;;21.80;13.20;;;;;;;;;;5056149;28;20041;-79
2022/11/14 12:26:44;;;;;;;13.10;8.18;;;;;;;;;;5056854;28;20075;-79
2022/11/14 12:29:10;;;;;;;8.93;4.78;;;;;;;;;;5056242;28;20060;-79
2022/11/14 12:31:38;;;;;;;8.13;5.93;;;;;;;;;;5058075;28;20046;-79
2022/11/14 12:34:07;;;;;;;9.00;5.88;;;;;;;;;;5040724;28;20057;-78
2022/11/14 12:36:34;;;;;;;9.65;5.78;;;;;;;;;;5059062;28;20037;-78
2022/11/14 12:39:01;;;;;;;8.85;5.15;;;;;;;;;;5059669;28;20511;-78
2022/11/14 12:41:32;;;;;;;10.70;5.28;;;;;;;;;;5058775;28;20637;-79
2022/11/14 12:44:18;;;;;;;9.18;5.57;;;;;;;;;;5035482;28;20115;-79
2022/11/14 12:47:03;;;;;;;9.15;5.47;;;;;;;;;;5035273;28;20084;-79
2022/11/14 12:49:56;;;;;;;13.25;5.95;;;;;;;;;;5041514;28;20216;-79
2022/11/14 12:52:43;;;;;;;11.05;5.97;;;;;;;;;;5058898;28;20041;-79
2022/11/14 12:55:24;;;;;;;10.02;5.32;;;;;;;;;;5059739;28;20048;-79
2022/11/14 12:58:09;;;;;;;8.93;5.57;;;;;;;;;;5041226;28;20056;-79
2022/11/14 13:00:39;;;;;;;9.82;5.28;;;;;;;;;;5040314;28;20041;-80
2022/11/14 13:03:24;;;;;;;14.25;5.72;;;;;;;;;;5059076;28;20068;-79
2022/11/14 13:05:55;;;;;;;10.77;5.90;;;;;;;;;;5058981;28;20048;-79
2022/11/14 13:08:27;;;;;;;11.68;6.03;;;;;;;;;;5060068;28;20534;-79
2022/11/14 13:10:53;;;;;;;15.40;7.28;;;;;;;;;;5059763;28;20514;-78
2022/11/14 13:21:58;;;;;;;9.00;5.90;;;;;;;;;;5059531;28;20053;-79
2022/11/14 13:24:24;;;;;;;9.32;5.28;;;;;;;;;;5040872;28;20865;-79
2022/11/14 13:26:52;;;;;;;12.57;5.88;;;;;;;;;;5035227;28;20124;-79
2022/11/14 13:29:37;;;;;;;10.68;5.47;;;;;;;;;;5057828;28;20564;-79
2022/11/14 13:32:03;;;;;;;14.45;7.75;;;;;;;;;;5059762;28;20052;-79
2022/11/14 13:34:37;;;;;;;9.77;5.47;;;;;;;;;;5032249;28;20041;-80
2022/11/14 13:37:09;;;;;;;11.85;7.20;;;;;;;;;;5040653;28;21039;-80
2022/11/14 13:39:38;;;;;;;11.55;6.35;;;;;;;;;;5057161;28;20049;-79
2022/11/14 13:42:13;;;;;;;12.50;6.28;;;;;;;;;;5059131;28;20466;-80
2022/11/14 13:44:40;;;;;;;10.25;5.57;;;;;;;;;;5040094;28;20099;-79
2022/11/14 13:47:14;;;;;;;8.68;5.30;;;;;;;;;;5033280;28;20640;-79
2022/11/14 13:49:58;;;;;;;10.07;6.03;;;;;;;;;;5034715;28;20041;-79
2022/11/14 13:52:28;;;;;;;14.48;7.40;;;;;;;;;;5058710;28;20045;-79
2022/11/14 13:54:55;;;;;;;11.57;6.82;;;;;;;;;;5059884;28;20052;-79
2022/11/14 13:57:36;;;;;;;11.23;6.38;;;;;;;;;;5040836;28;20138;-80
2022/11/14 14:00:02;;;;;;;12.68;8.00;;;;;;;;;;5058195;28;20517;-79
2022/11/14 14:02:31;;;;;;;12.25;6.85;;;;;;;;;;5058292;28;20754;-79
2022/11/14 14:04:57;;;;;;;14.50;6.43;;;;;;;;;;5058345;28;20080;-79
2022/11/14 14:07:28;;;;;;;14.45;6.82;;;;;;;;;;5058963;28;20075;-80
2022/11/14 14:10:07;;;;;;;12.25;6.30;;;;;;;;;;5058504;28;20033;-79
2022/11/14 14:12:33;;;;;;;16.00;6.78;;;;;;;;;;5058234;28;20040;-79
2022/11/14 14:15:08;;;;;;;8.18;5.82;;;;;;;;;;5057829;28;20425;-79
2022/11/14 14:17:49;;;;;;;11.80;7.80;;;;;;;;;;5040233;28;20049;-79
2022/11/14 14:20:18;;;;;;;11.63;6.60;;;;;;;;;;5057353;28;20112;-79
2022/11/14 14:22:47;;;;;;;11.98;6.95;;;;;;;;;;5059152;28;20514;-79
2022/11/14 14:25:21;;;;;;;10.50;6.05;;;;;;;;;;5033482;28;20553;-79
2022/11/14 14:27:50;;;;;;;10.32;6.22;;;;;;;;;;5039581;28;20076;-79
2022/11/14 14:30:17;;;;;;;10.15;6.70;;;;;;;;;;5033868;28;20044;-79
2022/11/14 14:32:43;;;;;;;13.85;6.55;;;;;;;;;;5038747;28;20135;-80
2022/11/14 14:35:27;;;;;;;10.57;6.15;;;;;;;;;;5039399;28;20091;-80
2022/11/14 14:37:53;;;;;;;15.82;8.00;;;;;;;;;;5039979;28;20769;-80
2022/11/14 14:40:27;;;;;;;12.23;7.72;;;;;;;;;;5057333;28;20047;-79
2022/11/14 14:42:56;;;;;;;12.32;8.13;;;;;;;;;;5059109;28;20156;-80
2022/11/14 14:45:23;;;;;;;10.68;7.10;;;;;;;;;;5057752;28;20049;-79
2022/11/14 14:47:50;;;;;;;17.48;8.98;;;;;;;;;;5042027;28;20423;-79
2022/11/14 14:50:21;;;;;;;18.20;8.55;;;;;;;;;;5058694;28;20037;-79
2022/11/14 14:52:55;;;;;;;15.77;9.02;;;;;;;;;;5034540;28;20040;-79
2022/11/14 14:55:23;;;;;;;20.80;10.98;;;;;;;;;;5058076;28;20032;-79
2022/11/14 14:57:49;;;;;;;17.98;11.85;;;;;;;;;;5058053;28;20045;-79